Time;durP1;ratioP1;P1;durP2;ratioP2;P2;SDS_P1;SDS_P2;PMS_P1;PMS_P2;Temp;Humidity;BMP_temperature;BMP_pressure;BME280_temperature;BME280_humidity;BME280_pressure;Samples;Min_cycle;Max_cycle;Signal;HPM_P1;HPM_P2
2022/02/04 07:25:39;;;;;;;10.32;5.85;;;;;;;-4.50;74.57;100138.45;1758762;80;21612;-42
2022/02/04 07:28:15;;;;;;;15.50;6.25;;;;;;;-4.39;74.13;100141.22;1674715;84;21549;-36
2022/02/04 07:30:45;;;;;;;7.95;5.00;;;;;;;-4.31;74.16;100145.08;1616599;87;21500;-35
2022/02/04 07:33:16;;;;;;;7.92;5.45;;;;;;;-4.26;73.51;100144.06;1658541;84;21009;-35
2022/02/04 07:40:55;;;;;;;13.55;6.35;;;;;;;-4.30;72.32;100143.88;1671207;83;21575;-42
2022/02/04 07:43:27;;;;;;;10.18;6.03;;;;;;;-4.29;72.97;100142.20;1634790;86;21547;-42
2022/02/04 07:45:53;;;;;;;10.68;4.85;;;;;;;-4.26;72.54;100141.11;1664143;84;21636;-43
2022/02/04 07:48:20;;;;;;;8.48;5.20;;;;;;;-4.21;72.34;100143.94;1678905;83;20960;-42
2022/02/04 07:50:48;;;;;;;10.32;5.97;;;;;;;-4.18;72.25;100139.86;1679767;83;21656;-42
2022/02/04 07:53:15;;;;;;;9.75;5.55;;;;;;;-4.13;72.18;100135.01;1679325;83;20996;-42
2022/02/04 07:55:42;;;;;;;11.90;5.53;;;;;;;-4.12;71.51;100136.77;1679544;83;21067;-43
2022/02/04 07:58:10;;;;;;;11.63;5.62;;;;;;;-4.11;71.92;100136.00;1680427;83;21583;-43
2022/02/04 08:00:39;;;;;;;12.68;6.17;;;;;;;-4.10;72.05;100141.18;1681463;83;21611;-43
2022/02/04 08:03:24;;;;;;;11.68;5.37;;;;;;;-4.05;72.44;100136.33;1673042;83;21039;-42
2022/02/04 08:05:35;;;;;;;9.88;5.20;;;;;;;-3.99;71.68;100134.11;1611209;87;21135;-43
2022/02/04 08:08:16;;;;;;;11.10;5.83;;;;;;;-3.93;71.03;100141.24;1674718;83;21000;-43
2022/02/04 08:10:45;;;;;;;8.25;5.75;;;;;;;-3.91;71.20;100150.73;1677535;83;21037;-42
2022/02/04 08:18:29;;;;;;;11.78;6.00;;;;;;;-3.79;70.68;100147.57;1678103;83;21008;-43
2022/02/04 08:23:39;;;;;;;12.00;5.95;;;;;;;-3.70;70.94;100147.61;1674446;83;21701;-43
2022/02/04 08:34:06;;;;;;;;;;;;;;;-3.39;70.08;100135.64;1718778;81;21037;-43
2022/02/04 08:36:43;;;;;;;9.03;4.80;;;;;;;-3.30;68.86;100136.14;1714977;81;20128;-37
2022/02/04 08:39:35;;;;;;;8.40;6.00;;;;;;;-3.29;68.69;100135.34;1715570;82;21363;-37
2022/02/04 08:54:57;;;;;;;11.05;5.95;;;;;;;-3.03;67.24;100131.95;1702442;82;21363;-43
2022/02/04 08:57:29;;;;;;;9.95;5.85;;;;;;;-2.98;67.17;100126.67;1663012;85;21420;-43
2022/02/04 09:02:32;;;;;;;12.75;6.35;;;;;;;-2.92;67.24;100118.03;1712673;82;20962;-37
2022/02/04 09:04:49;;;;;;;10.35;5.78;;;;;;;-2.89;67.05;100123.31;1706214;82;20994;-43
2022/02/04 09:07:19;;;;;;;10.93;5.90;;;;;;;-2.86;66.67;100115.77;1708033;82;21097;-38
2022/02/04 09:09:58;;;;;;;14.85;6.45;;;;;;;-2.82;66.54;100120.26;1666588;85;21005;-42
2022/02/04 09:20:37;;;;;;;7.67;5.42;;;;;;;-2.56;65.64;100114.26;1650137;85;21092;-44
2022/02/04 09:22:59;;;;;;;11.50;5.40;;;;;;;-2.52;65.52;100103.37;1655679;85;21548;-43
2022/02/04 09:25:27;;;;;;;11.22;5.50;;;;;;;-2.47;64.53;100098.95;1705798;82;21081;-44
2022/02/04 09:27:54;;;;;;;12.20;5.55;;;;;;;-2.44;64.29;100101.64;1709489;82;21080;-44
2022/02/04 09:30:21;;;;;;;10.58;5.87;;;;;;;-2.45;63.25;100103.73;1716852;80;20989;-43
2022/02/04 09:32:48;;;;;;;9.13;4.65;;;;;;;-2.46;63.81;100100.70;1720221;81;21628;-38
2022/02/04 09:35:18;;;;;;;8.58;4.80;;;;;;;-2.38;63.71;100104.02;1715590;82;21524;-44
2022/02/04 09:37:46;;;;;;;9.30;5.20;;;;;;;-2.35;63.36;100106.75;1716716;82;20993;-43
2022/02/04 09:40:13;;;;;;;9.33;5.42;;;;;;;-2.36;63.27;100100.75;1678113;85;21107;-43
2022/02/04 09:42:40;;;;;;;12.33;5.15;;;;;;;-2.36;63.84;100098.59;1723510;81;20965;-43
2022/02/04 09:45:09;;;;;;;7.90;5.67;;;;;;;-2.35;63.55;100098.66;1678889;84;21122;-36
2022/02/04 09:47:40;;;;;;;10.72;5.72;;;;;;;-2.29;64.37;100100.23;1726212;81;21639;-42
2022/02/04 09:50:17;;;;;;;8.43;5.10;;;;;;;-2.14;63.87;100101.37;1698056;81;21510;-44
2022/02/04 10:12:26;;;;;;;9.63;5.92;;;;;;;-1.57;62.09;100088.59;1718940;81;21120;-38
2022/02/04 10:15:01;;;;;;;10.15;5.72;;;;;;;-1.52;61.18;100090.95;1652021;81;21099;-43
2022/02/04 10:17:16;;;;;;;9.90;5.62;;;;;;;-1.52;61.19;100078.13;1718578;81;21534;-44
2022/02/04 10:19:59;;;;;;;11.20;6.28;;;;;;;-1.57;60.47;100083.05;1718647;81;21539;-36
2022/02/04 10:22:45;;;;;;;8.95;5.62;;;;;;;-1.56;61.55;100084.83;1695421;82;21076;-36
2022/02/04 10:29:17;;;;;;;11.20;5.37;;;;;;;-0.90;60.07;100086.41;1671641;82;21475;-43
2022/02/04 10:32:38;;;;;;;10.50;5.92;;;;;;;-0.63;58.41;100078.98;1650308;85;21120;-37
2022/02/04 10:35:26;;;;;;;9.60;6.08;;;;;;;-0.49;58.41;100073.11;1643254;85;21165;-35
2022/02/04 10:38:25;;;;;;;10.10;4.72;;;;;;;-0.36;57.78;100083.06;1649024;85;21033;-37
2022/02/04 10:43:56;;;;;;;9.98;5.22;;;;;;;-0.56;56.97;100083.55;1641826;85;21794;-43
2022/02/04 10:54:08;;;;;;;7.05;3.65;;;;;;;-0.64;56.73;100071.69;1647578;85;21050;-36
2022/02/04 11:03:33;;;;;;;11.40;8.33;;;;;;;0.35;53.68;100064.79;1705930;82;21098;-44
2022/02/04 11:09:00;;;;;;;7.62;5.10;;;;;;;1.10;52.38;100056.75;1667602;82;21687;-37
2022/02/04 11:48:16;;;;;;;7.90;4.33;;;;;;;2.36;47.72;100042.23;1714519;82;21036;-43
2022/02/04 11:51:13;;;;;;;6.60;4.55;;;;;;;2.16;47.74;100041.66;1665089;82;21577;-37
2022/02/04 11:54:29;;;;;;;8.10;3.95;;;;;;;2.04;47.79;100047.34;1720148;82;21096;-38
2022/02/04 11:56:57;;;;;;;7.28;4.50;;;;;;;1.87;47.54;100043.37;1683008;83;21064;-45
2022/02/04 11:59:40;;;;;;;8.43;4.40;;;;;;;1.60;48.76;100033.93;1595427;88;21105;-39
2022/02/04 12:02:30;;;;;;;6.67;4.25;;;;;;;1.57;48.33;100039.42;1589538;88;21616;-45
2022/02/04 12:05:22;;;;;;;6.03;4.08;;;;;;;1.60;47.83;100042.95;1585307;89;21098;-45
2022/02/04 12:08:20;;;;;;;6.42;4.37;;;;;;;1.31;47.95;100038.56;1592842;89;21041;-45
2022/02/04 12:11:03;;;;;;;7.75;4.40;;;;;;;1.10;49.70;100032.69;1590953;89;21695;-45
2022/02/04 12:13:58;;;;;;;7.40;4.53;;;;;;;1.15;51.06;100038.45;1586304;88;21502;-45
2022/02/04 12:17:05;;;;;;;5.60;3.55;;;;;;;1.40;49.69;100038.00;1623431;86;21706;-46
2022/02/04 12:19:43;;;;;;;7.05;4.15;;;;;;;1.28;48.04;100044.92;1616298;86;21580;-38
2022/02/04 12:22:17;;;;;;;9.98;4.92;;;;;;;1.11;49.49;100031.47;1616460;88;21073;-38
2022/02/04 12:25:08;;;;;;;7.85;4.85;;;;;;;1.05;49.47;100032.55;1604743;87;21534;-46
2022/02/04 12:27:35;;;;;;;8.13;5.05;;;;;;;0.80;50.14;100041.98;1618561;86;21510;-37
2022/02/04 12:30:20;;;;;;;5.80;4.28;;;;;;;0.64;50.61;100028.52;1625403;86;21088;-38
2022/02/04 12:32:50;;;;;;;9.33;4.00;;;;;;;0.69;50.83;100033.01;1613897;84;21663;-38
2022/02/04 12:35:17;;;;;;;7.65;4.83;;;;;;;0.92;49.46;100029.07;1704368;82;21045;-36
2022/02/04 12:37:47;;;;;;;7.53;4.90;;;;;;;1.04;49.58;100029.48;1710869;82;21003;-40
2022/02/04 12:40:38;;;;;;;6.83;4.30;;;;;;;1.06;49.81;100031.72;1682336;83;21044;-39
2022/02/04 12:43:04;;;;;;;7.58;4.83;;;;;;;0.98;49.60;100039.59;1700059;83;21351;-40
2022/02/04 12:45:31;;;;;;;9.00;5.35;;;;;;;0.66;50.00;100039.36;1713877;82;21497;-37
2022/02/04 12:48:04;;;;;;;6.55;4.72;;;;;;;0.35;51.15;100048.97;1709835;82;21024;-37
2022/02/04 12:50:31;;;;;;;6.97;4.45;;;;;;;0.14;51.87;100054.18;1706662;83;21450;-38
2022/02/04 12:52:58;;;;;;;6.10;4.22;;;;;;;-0.06;52.70;100044.81;1701969;83;20997;-45
2022/02/04 12:55:35;;;;;;;7.20;4.55;;;;;;;-0.29;53.34;100064.48;1685870;82;21049;-45
2022/02/04 12:58:10;;;;;;;10.15;5.10;;;;;;;-0.55;53.58;100057.03;1680618;82;21047;-46
2022/02/04 13:03:20;;;;;;;9.05;5.45;;;;;;;-0.89;55.50;100067.61;1664204;85;20985;-45
2022/02/04 13:08:45;;;;;;;8.15;4.30;;;;;;;-0.92;56.00;100063.64;1666369;85;21019;-44
2022/02/04 13:11:16;;;;;;;7.55;4.95;;;;;;;-0.99;56.22;100070.19;1663725;85;21010;-36
2022/02/04 13:13:49;;;;;;;8.48;4.03;;;;;;;-1.07;55.54;100072.84;1669267;85;21432;-44
2022/02/04 13:16:31;;;;;;;9.03;4.90;;;;;;;-1.20;55.36;100069.29;1663097;85;21053;-44
2022/02/04 13:19:00;;;;;;;8.15;5.00;;;;;;;-1.31;56.03;100071.39;1671500;85;21051;-44
2022/02/04 13:21:32;;;;;;;8.30;4.92;;;;;;;-1.38;56.08;100068.95;1664297;84;21045;-44
2022/02/04 13:24:06;;;;;;;18.37;8.33;;;;;;;-1.45;56.33;100073.36;1664223;85;21387;-45
2022/02/04 13:26:34;;;;;;;9.55;5.15;;;;;;;-1.50;56.61;100077.41;1663438;84;21068;-45
2022/02/04 13:29:04;;;;;;;12.68;6.10;;;;;;;-1.48;57.48;100078.75;1601790;88;21012;-45
2022/02/04 13:31:35;;;;;;;11.53;5.95;;;;;;;-1.38;57.46;100078.35;1630300;86;21021;-45
2022/02/04 13:34:00;;;;;;;8.83;5.67;;;;;;;-1.22;57.01;100079.88;1669591;84;20964;-45
2022/02/04 13:36:38;;;;;;;14.85;4.72;;;;;;;-1.05;56.82;100078.91;1599063;85;21489;-45
2022/02/04 13:47:27;;;;;;;7.97;4.12;;;;;;;-0.71;54.70;100082.50;1665601;85;22073;-45
2022/02/04 13:50:27;;;;;;;6.90;4.53;;;;;;;-0.74;54.50;100076.38;1660507;84;21317;-45
2022/02/04 13:58:51;;;;;;;6.80;4.03;;;;;;;-0.44;53.85;100077.63;1687963;83;21363;-44
2022/02/04 14:01:22;;;;;;;8.70;4.37;;;;;;;-0.16;53.86;100074.46;1707256;83;21172;-44
2022/02/04 14:03:48;;;;;;;6.50;4.27;;;;;;;-0.18;53.37;100078.64;1705974;83;21027;-44
2022/02/04 14:06:19;;;;;;;6.60;4.50;;;;;;;-0.40;53.76;100070.92;1713188;82;21537;-44
2022/02/04 14:09:06;;;;;;;5.70;4.12;;;;;;;-0.63;54.59;100078.98;1707977;83;21027;-44
2022/02/04 14:11:34;;;;;;;5.22;3.80;;;;;;;-0.74;55.22;100077.25;1710550;83;21059;-45
